Time;durP1;ratioP1;P1;durP2;ratioP2;P2;SDS_P1;SDS_P2;PMS_P1;PMS_P2;Temp;Humidity;BMP_temperature;BMP_pressure;BME280_temperature;BME280_humidity;BME280_pressure;Samples;Min_cycle;Max_cycle;Signal;HPM_P1;HPM_P2
2023/05/26 00:02:02;;;;;;;13.82;4.38;;;;;;;19.61;66.86;100503.16;5030358;28;20073;-90
2023/05/26 00:04:28;;;;;;;19.13;4.47;;;;;;;19.78;66.77;100534.72;5013189;28;20402;-90
2023/05/26 00:06:54;;;;;;;15.30;4.45;;;;;;;19.83;66.60;100534.16;5013401;28;20042;-89
2023/05/26 00:09:21;;;;;;;9.10;3.95;;;;;;;19.83;66.85;100528.69;5013195;28;20037;-91
2023/05/26 00:11:46;;;;;;;7.00;4.00;;;;;;;19.95;66.78;100538.97;5016239;28;20125;-90
2023/05/26 00:14:14;;;;;;;11.35;4.60;;;;;;;19.86;67.13;100528.31;5030483;28;20029;-91
2023/05/26 00:16:40;;;;;;;13.60;4.38;;;;;;;19.89;66.79;100511.56;5022904;28;20049;-90
2023/05/26 00:19:06;;;;;;;6.97;3.60;;;;;;;19.92;66.56;100505.72;5033862;28;20052;-92
2023/05/26 00:21:33;;;;;;;17.75;4.82;;;;;;;20.08;66.61;100532.84;5031964;28;20064;-90
2023/05/26 00:23:58;;;;;;;7.40;4.07;;;;;;;19.95;66.78;100516.28;5015110;28;20152;-91
2023/05/26 00:26:25;;;;;;;24.45;4.75;;;;;;;20.04;66.64;100523.31;5032771;28;20476;-90
2023/05/26 00:28:50;;;;;;;9.23;3.90;;;;;;;19.78;66.91;100485.59;5039034;28;20048;-91
2023/05/26 00:31:16;;;;;;;9.48;4.63;;;;;;;19.98;66.78;100535.00;5042152;28;20029;-92
2023/05/26 00:33:41;;;;;;;8.30;4.13;;;;;;;19.82;66.97;100506.00;5045378;28;20049;-91
2023/05/26 00:36:07;;;;;;;12.32;4.53;;;;;;;19.70;67.06;100493.00;5046093;28;20036;-91
2023/05/26 00:38:32;;;;;;;20.20;3.67;;;;;;;19.86;67.01;100517.41;5055586;28;20116;-91
2023/05/26 00:40:58;;;;;;;7.43;4.70;;;;;;;19.62;67.33;100476.72;5031587;28;20025;-91
2023/05/26 00:43:24;;;;;;;7.30;4.15;;;;;;;19.73;67.20;100489.91;5039410;28;20033;-90
2023/05/26 00:45:49;;;;;;;8.13;4.20;;;;;;;19.61;67.26;100477.75;5038726;28;20054;-90
2023/05/26 00:48:15;;;;;;;6.85;4.07;;;;;;;19.71;67.46;100501.00;5048350;28;20006;-92
2023/05/26 00:50:41;;;;;;;6.95;4.38;;;;;;;19.53;67.18;100473.25;5071242;28;20037;-89
2023/05/26 00:53:14;;;;;;;7.20;4.00;;;;;;;19.61;67.40;100480.47;5055080;28;20021;-92
2023/05/26 00:55:41;;;;;;;10.77;3.60;;;;;;;19.59;67.20;100468.91;5057348;28;20097;-90
2023/05/26 00:58:06;;;;;;;13.13;4.28;;;;;;;19.65;67.09;100473.63;5047431;28;20044;-92
2023/05/26 01:00:34;;;;;;;7.72;3.92;;;;;;;19.93;66.26;100501.97;5041993;28;20029;-91
2023/05/26 01:02:59;;;;;;;10.70;4.15;;;;;;;19.63;66.53;100454.69;5045940;28;20042;-89
2023/05/26 01:05:28;;;;;;;12.38;4.50;;;;;;;19.64;66.60;100466.47;5037311;28;20094;-91
2023/05/26 01:07:54;;;;;;;13.05;4.28;;;;;;;19.71;66.62;100483.78;5044382;28;20144;-92
2023/05/26 01:10:21;;;;;;;10.77;3.85;;;;;;;19.76;66.70;100500.44;5038852;28;20068;-92
2023/05/26 01:12:58;;;;;;;8.00;3.85;;;;;;;19.76;66.69;100514.09;5063236;28;20034;-91
2023/05/26 01:15:30;;;;;;;14.50;3.72;;;;;;;19.91;66.53;100550.44;5046507;28;20032;-89
2023/05/26 01:18:09;;;;;;;9.82;4.35;;;;;;;19.74;67.56;100543.44;5048040;28;20026;-91
2023/05/26 01:20:41;;;;;;;8.32;4.55;;;;;;;19.79;68.37;100576.47;5054025;28;20026;-89
2023/05/26 01:23:32;;;;;;;10.48;5.32;;;;;;;19.65;69.01;100588.22;5056785;28;20033;-88
2023/05/26 01:26:23;;;;;;;14.25;6.57;;;;;;;19.62;69.47;100591.31;5050874;28;20485;-90
2023/05/26 01:28:56;;;;;;;14.30;5.07;;;;;;;19.63;69.86;100593.03;5051388;28;20037;-92
2023/05/26 01:31:21;;;;;;;9.20;5.00;;;;;;;19.61;69.22;100567.78;5047608;28;20044;-93
2023/05/26 01:33:47;;;;;;;12.63;4.75;;;;;;;19.87;68.83;100587.34;5037876;28;20033;-90
2023/05/26 01:36:12;;;;;;;13.25;5.72;;;;;;;19.96;68.51;100591.69;5035266;28;20029;-90
2023/05/26 01:38:39;;;;;;;14.93;5.57;;;;;;;19.78;68.17;100547.50;5035344;28;20396;-90
2023/05/26 01:41:31;;;;;;;17.25;5.53;;;;;;;20.08;68.15;100587.47;5041458;28;20047;-91
2023/05/26 01:44:04;;;;;;;6.72;4.15;;;;;;;20.08;68.15;100576.53;5009353;28;20049;-90
2023/05/26 01:46:41;;;;;;;8.75;4.95;;;;;;;20.20;67.64;100580.50;5016989;28;20105;-89
2023/05/26 01:49:09;;;;;;;14.75;4.97;;;;;;;20.15;67.39;100554.78;5014471;28;20126;-90
2023/05/26 01:51:39;;;;;;;14.65;6.18;;;;;;;20.22;67.35;100563.91;5009181;28;20061;-91
2023/05/26 01:54:08;;;;;;;8.52;4.82;;;;;;;20.21;67.06;100554.91;4976961;28;20034;-91
2023/05/26 01:56:35;;;;;;;11.73;4.63;;;;;;;20.13;66.68;100535.84;4977091;28;20138;-89
2023/05/26 01:59:02;;;;;;;15.95;4.53;;;;;;;20.26;66.55;100566.13;4976636;28;20518;-91
2023/05/26 02:01:28;;;;;;;7.25;4.85;;;;;;;20.18;66.50;100570.81;4979317;28;20446;-88
2023/05/26 02:03:55;;;;;;;10.15;4.93;;;;;;;20.12;66.61;100577.84;4995567;28;20038;-90
2023/05/26 02:06:21;;;;;;;14.18;4.63;;;;;;;20.01;66.74;100567.38;4977955;28;20037;-91
2023/05/26 02:08:47;;;;;;;8.02;4.10;;;;;;;20.02;66.90;100560.91;4993535;28;20042;-90
2023/05/26 02:11:13;;;;;;;11.30;4.57;;;;;;;19.83;66.92;100529.53;4976842;28;20486;-91
2023/05/26 02:13:38;;;;;;;7.47;4.50;;;;;;;19.87;66.92;100540.94;4993299;28;20046;-91
2023/05/26 02:16:04;;;;;;;5.78;4.18;;;;;;;20.02;66.91;100574.56;4993230;28;20096;-90
2023/05/26 02:18:29;;;;;;;9.98;4.72;;;;;;;19.94;67.22;100580.94;4993106;28;20136;-91
2023/05/26 02:20:55;;;;;;;11.20;4.25;;;;;;;19.85;67.42;100583.94;5004065;28;20044;-91
2023/05/26 02:23:20;;;;;;;15.85;4.88;;;;;;;19.89;67.40;100580.66;5033112;28;20034;-91
2023/05/26 02:25:46;;;;;;;6.47;4.78;;;;;;;19.83;67.56;100578.66;5033031;28;20072;-92
2023/05/26 02:28:11;;;;;;;9.88;4.68;;;;;;;19.83;67.53;100588.75;5050193;28;20026;-91
2023/05/26 02:30:37;;;;;;;14.02;5.25;;;;;;;19.86;67.56;100588.38;5033512;28;20406;-91
2023/05/26 02:33:04;;;;;;;8.52;5.32;;;;;;;19.78;67.47;100577.53;5034038;28;20026;-92
2023/05/26 02:35:30;;;;;;;9.65;5.63;;;;;;;19.63;67.59;100552.09;5035888;28;20025;-91
2023/05/26 02:37:56;;;;;;;14.82;4.80;;;;;;;19.63;67.84;100549.38;5038531;28;20413;-90
2023/05/26 02:40:21;;;;;;;15.60;5.60;;;;;;;19.58;67.79;100541.72;5055357;28;20025;-91
2023/05/26 02:42:46;;;;;;;17.25;5.68;;;;;;;19.83;68.00;100577.81;5054151;28;20043;-91
2023/05/26 02:45:12;;;;;;;16.25;6.72;;;;;;;19.70;67.76;100566.69;5055563;28;20092;-94
2023/05/26 02:47:37;;;;;;;8.98;4.45;;;;;;;19.37;68.48;100534.22;5038871;28;20215;-91
2023/05/26 02:50:03;;;;;;;14.90;5.85;;;;;;;19.51;68.58;100557.97;5032860;28;20036;-92
2023/05/26 02:52:29;;;;;;;9.85;5.70;;;;;;;19.58;68.44;100570.88;5034667;28;20029;-90
2023/05/26 02:54:54;;;;;;;16.73;6.78;;;;;;;19.33;69.01;100543.78;5034978;28;20044;-91
2023/05/26 02:57:20;;;;;;;9.38;5.97;;;;;;;19.57;68.95;100563.75;5050713;28;20052;-91
2023/05/26 02:59:45;;;;;;;12.15;5.97;;;;;;;19.41;69.20;100557.41;5051507;28;20044;-91
2023/05/26 03:02:11;;;;;;;13.05;5.90;;;;;;;19.52;69.17;100565.16;5051393;28;20492;-90
2023/05/26 03:04:36;;;;;;;20.27;5.82;;;;;;;19.59;69.17;100575.31;5051366;28;20088;-91
2023/05/26 03:07:02;;;;;;;15.32;6.32;;;;;;;19.61;69.22;100578.69;5034733;28;20040;-91
2023/05/26 03:09:27;;;;;;;17.10;6.18;;;;;;;19.44;68.99;100548.00;5052337;28;20052;-89
2023/05/26 03:11:53;;;;;;;14.25;5.65;;;;;;;19.61;68.83;100562.34;5035757;28;20048;-91
2023/05/26 03:14:18;;;;;;;8.70;5.18;;;;;;;19.65;68.55;100547.28;5054665;28;20551;-89
2023/05/26 03:16:44;;;;;;;20.52;5.60;;;;;;;19.72;68.92;100565.50;5058116;28;20040;-90
2023/05/26 03:19:09;;;;;;;12.20;6.10;;;;;;;19.69;68.51;100554.94;5053682;28;20021;-89
2023/05/26 03:21:35;;;;;;;16.15;5.82;;;;;;;19.77;68.46;100556.72;5039114;28;20037;-91
2023/05/26 03:24:01;;;;;;;55.92;9.02;;;;;;;19.85;68.57;100564.81;5042931;28;20104;-90
2023/05/26 03:26:26;;;;;;;21.20;6.70;;;;;;;19.84;68.49;100560.41;5014640;28;20040;-91
2023/05/26 03:28:52;;;;;;;18.48;6.70;;;;;;;19.86;68.43;100559.19;5012429;28;20464;-83
2023/05/26 03:31:17;;;;;;;9.52;6.15;;;;;;;19.86;68.10;100559.19;5027037;28;20022;-81
2023/05/26 03:33:44;;;;;;;25.10;7.22;;;;;;;19.88;68.44;100564.44;5012673;28;20022;-84
2023/05/26 03:36:10;;;;;;;10.88;5.30;;;;;;;19.93;68.33;100565.63;5011875;28;20034;-83
2023/05/26 03:38:35;;;;;;;15.75;6.22;;;;;;;19.87;68.39;100560.91;5013457;28;20017;-81
2023/05/26 03:41:01;;;;;;;19.50;5.85;;;;;;;19.91;68.37;100564.06;5016311;28;20022;-82
2023/05/26 03:43:26;;;;;;;12.27;6.35;;;;;;;19.87;68.47;100558.16;5012724;28;20056;-88
2023/05/26 03:45:52;;;;;;;11.48;6.50;;;;;;;19.87;68.77;100557.31;5014517;28;20148;-84
2023/05/26 03:48:21;;;;;;;13.30;6.35;;;;;;;19.81;68.87;100541.69;5018562;28;20026;-84
2023/05/26 03:50:47;;;;;;;23.10;6.40;;;;;;;19.90;68.71;100565.97;5024285;28;20030;-86
2023/05/26 03:53:13;;;;;;;17.70;6.45;;;;;;;19.98;68.83;100565.88;5021260;28;20091;-85
2023/05/26 03:55:38;;;;;;;21.02;6.70;;;;;;;19.95;68.23;100560.81;5030877;28;20034;-84
2023/05/26 03:58:04;;;;;;;19.67;6.78;;;;;;;20.01;68.53;100565.50;5033641;28;20148;-83
2023/05/26 04:00:31;;;;;;;33.40;7.47;;;;;;;19.98;68.46;100567.75;5026865;28;20026;-87
2023/05/26 04:02:57;;;;;;;20.42;7.45;;;;;;;19.97;68.61;100572.38;5016021;28;20030;-83
2023/05/26 04:05:23;;;;;;;17.77;6.00;;;;;;;19.93;68.94;100567.50;5023051;28;20065;-83
2023/05/26 04:07:49;;;;;;;13.85;6.82;;;;;;;20.05;68.22;100566.00;5020530;28;20026;-84
2023/05/26 04:10:14;;;;;;;24.20;6.68;;;;;;;20.04;68.28;100556.09;5012092;28;20037;-86
2023/05/26 04:12:40;;;;;;;10.25;5.57;;;;;;;20.08;68.15;100571.94;5016451;28;20034;-84
2023/05/26 04:15:06;;;;;;;14.80;5.75;;;;;;;20.18;69.68;100598.97;5015978;28;20367;-85
2023/05/26 04:17:32;;;;;;;18.80;6.55;;;;;;;20.12;71.10;100594.22;5011589;28;20030;-92
2023/05/26 04:19:59;;;;;;;17.25;7.20;;;;;;;20.17;69.69;100586.34;5013137;28;20040;-90
2023/05/26 04:22:24;;;;;;;20.52;7.47;;;;;;;20.33;68.88;100605.31;5012302;28;20045;-86
2023/05/26 04:24:50;;;;;;;19.20;6.00;;;;;;;20.30;68.37;100604.84;5010414;28;20404;-88
2023/05/26 04:27:15;;;;;;;14.35;7.25;;;;;;;20.21;68.69;100586.81;5011442;28;20040;-83
2023/05/26 04:29:44;;;;;;;29.38;7.05;;;;;;;20.37;69.22;100603.03;5012109;28;20394;-85
2023/05/26 04:32:11;;;;;;;17.85;6.88;;;;;;;20.46;68.80;100594.53;5011921;28;20034;-86
2023/05/26 04:34:38;;;;;;;28.98;7.28;;;;;;;20.42;68.12;100582.31;5013924;28;20030;-86
2023/05/26 04:37:04;;;;;;;18.80;6.80;;;;;;;20.49;68.24;100588.69;5026319;28;20036;-86
2023/05/26 04:39:33;;;;;;;31.30;7.10;;;;;;;20.66;68.09;100613.09;5022220;28;20036;-84
2023/05/26 04:41:58;;;;;;;20.42;6.40;;;;;;;20.71;68.36;100596.97;5010318;28;20091;-86
2023/05/26 04:44:24;;;;;;;16.42;7.30;;;;;;;20.69;68.05;100591.69;5010076;28;20473;-86
2023/05/26 04:46:50;;;;;;;60.63;10.63;;;;;;;20.78;67.02;100603.38;5010849;28;20050;-84
2023/05/26 04:49:16;;;;;;;27.20;8.02;;;;;;;20.79;67.40;100607.81;5014272;28;20065;-84
2023/05/26 04:51:42;;;;;;;28.67;8.75;;;;;;;20.70;67.09;100604.34;5015569;28;20025;-83
2023/05/26 04:54:07;;;;;;;41.28;9.80;;;;;;;20.62;67.79;100590.75;5014964;28;20058;-84
2023/05/26 04:56:33;;;;;;;17.17;8.40;;;;;;;20.75;68.81;100628.34;5014706;28;20104;-83
2023/05/26 04:58:58;;;;;;;54.22;10.80;;;;;;;20.82;67.97;100632.03;5014907;28;20081;-84
2023/05/26 05:01:24;;;;;;;20.50;7.10;;;;;;;20.75;67.68;100631.09;4996069;28;20049;-83
2023/05/26 05:03:50;;;;;;;30.80;8.30;;;;;;;20.75;67.45;100642.03;5013392;28;20038;-83
2023/05/26 05:06:15;;;;;;;47.92;8.77;;;;;;;20.83;68.07;100631.81;5019330;28;20034;-83
2023/05/26 05:08:41;;;;;;;34.35;7.90;;;;;;;20.99;67.25;100633.50;5015670;28;20136;-85
2023/05/26 05:11:07;;;;;;;26.42;7.47;;;;;;;21.05;66.59;100619.91;5012683;28;20091;-85
2023/05/26 05:13:33;;;;;;;26.40;9.48;;;;;;;21.01;66.67;100617.72;5011181;28;20484;-84
2023/05/26 05:15:59;;;;;;;17.88;6.80;;;;;;;21.14;66.19;100617.94;5026560;28;20026;-84
2023/05/26 05:18:25;;;;;;;32.42;7.05;;;;;;;21.08;65.49;100613.19;4987112;28;20050;-84
2023/05/26 05:20:51;;;;;;;18.85;9.48;;;;;;;21.20;65.73;100627.25;5019637;28;20033;-84
2023/05/26 05:23:16;;;;;;;20.52;4.78;;;;;;;21.09;66.01;100614.94;5020530;28;20026;-84
2023/05/26 05:25:42;;;;;;;6.93;5.28;;;;;;;21.22;66.00;100623.28;5044125;28;20037;-84
2023/05/26 05:28:10;;;;;;;13.93;5.68;;;;;;;21.37;65.45;100632.31;5016871;28;20402;-83
2023/05/26 05:30:35;;;;;;;48.47;9.85;;;;;;;21.26;65.61;100616.38;5013966;28;20125;-82
2023/05/26 05:33:01;;;;;;;31.48;6.95;;;;;;;21.41;65.57;100619.91;5027372;28;20365;-83
2023/05/26 05:35:26;;;;;;;20.80;5.88;;;;;;;21.40;65.49;100611.91;5028659;28;20083;-87
2023/05/26 05:37:58;;;;;;;41.50;7.32;;;;;;;21.44;65.26;100615.91;5014881;28;20025;-84
2023/05/26 05:40:23;;;;;;;28.87;7.50;;;;;;;21.66;65.37;100623.09;5012608;28;20029;-87
2023/05/26 05:42:49;;;;;;;37.50;8.75;;;;;;;21.68;65.27;100605.41;5012330;28;20172;-78
2023/05/26 05:45:14;;;;;;;49.88;7.55;;;;;;;21.91;64.74;100621.66;5013996;28;20049;-84
2023/05/26 05:47:40;;;;;;;36.70;7.22;;;;;;;22.07;65.33;100610.44;5011008;28;20410;-85
2023/05/26 05:50:06;;;;;;;16.23;5.95;;;;;;;22.19;64.28;100608.81;5014120;28;20101;-85
2023/05/26 05:52:32;;;;;;;26.38;6.82;;;;;;;22.26;63.39;100608.03;5012216;28;20033;-82
2023/05/26 05:54:57;;;;;;;11.95;5.72;;;;;;;22.15;62.97;100595.72;5011602;28;20030;-82
2023/05/26 05:57:23;;;;;;;22.08;5.63;;;;;;;22.21;63.03;100586.69;5013434;28;20030;-85
2023/05/26 05:59:48;;;;;;;38.50;8.70;;;;;;;22.34;63.01;100597.75;5013615;28;20101;-88
2023/05/26 06:02:14;;;;;;;20.95;5.03;;;;;;;22.43;61.81;100588.31;5016482;28;20050;-88
2023/05/26 06:04:39;;;;;;;52.60;12.18;;;;;;;22.46;61.25;100590.63;5037133;28;20069;-91
2023/05/26 06:07:05;;;;;;;27.83;7.07;;;;;;;22.43;60.31;100560.91;5017223;28;20029;-89
2023/05/26 06:09:30;;;;;;;12.88;5.47;;;;;;;22.42;59.41;100563.81;5020925;28;20030;-89
2023/05/26 06:11:56;;;;;;;37.38;7.35;;;;;;;22.42;59.05;100553.72;5017572;28;20052;-88
2023/05/26 06:14:22;;;;;;;18.30;6.63;;;;;;;22.72;59.09;100604.50;5014995;28;20037;-90
2023/05/26 06:16:47;;;;;;;15.02;5.57;;;;;;;22.57;58.67;100564.53;5027044;28;20049;-87
2023/05/26 06:19:13;;;;;;;20.20;5.00;;;;;;;22.66;58.25;100577.91;5025347;28;20086;-87
2023/05/26 06:21:38;;;;;;;14.77;5.85;;;;;;;22.80;58.97;100602.63;5021289;28;20057;-88
2023/05/26 06:24:04;;;;;;;15.15;6.90;;;;;;;22.87;59.64;100606.25;5028381;28;20092;-87
2023/05/26 06:26:29;;;;;;;22.02;6.22;;;;;;;22.81;60.34;100596.13;5044580;28;20033;-88
2023/05/26 06:28:55;;;;;;;20.25;5.65;;;;;;;22.91;59.92;100580.09;5029611;28;20081;-90
2023/05/26 06:31:20;;;;;;;32.42;5.93;;;;;;;23.07;58.55;100609.91;5034323;28;20042;-94
2023/05/26 06:33:46;;;;;;;14.55;5.25;;;;;;;23.12;58.77;100594.50;5026925;28;20038;-89
2023/05/26 06:36:11;;;;;;;11.18;4.30;;;;;;;23.30;57.50;100613.16;5021681;28;20029;-89
2023/05/26 06:38:37;;;;;;;31.40;8.65;;;;;;;23.37;57.35;100602.16;5018178;28;20034;-83
2023/05/26 06:41:02;;;;;;;31.95;5.35;;;;;;;23.48;56.30;100599.72;5011666;28;20116;-81
2023/05/26 06:43:28;;;;;;;22.67;8.18;;;;;;;23.43;56.60;100591.22;5013119;28;20076;-86
2023/05/26 06:45:53;;;;;;;18.35;4.60;;;;;;;23.54;55.88;100592.53;5011428;28;20111;-81
2023/05/26 06:48:19;;;;;;;11.82;4.78;;;;;;;23.68;54.48;100594.22;5011429;28;20032;-80
2023/05/26 06:50:44;;;;;;;15.85;5.18;;;;;;;23.65;54.55;100581.75;5011483;28;20044;-78
2023/05/26 06:53:10;;;;;;;15.55;3.67;;;;;;;23.77;53.59;100593.81;5009975;28;20476;-83
2023/05/26 06:55:35;;;;;;;39.13;6.97;;;;;;;23.92;53.50;100600.97;5011662;28;20034;-83
2023/05/26 06:58:01;;;;;;;14.38;4.55;;;;;;;24.05;51.90;100606.47;5011625;28;20026;-82
2023/05/26 07:00:26;;;;;;;13.82;4.18;;;;;;;23.96;51.31;100561.03;5010633;28;20072;-80
2023/05/26 07:02:51;;;;;;;28.05;4.57;;;;;;;24.07;51.64;100593.34;5009821;28;20065;-77
2023/05/26 07:05:17;;;;;;;33.35;4.95;;;;;;;23.95;51.01;100584.06;5010972;28;20041;-90
2023/05/26 07:07:43;;;;;;;34.58;6.13;;;;;;;23.84;51.05;100589.16;5015127;28;20062;-88
2023/05/26 07:10:09;;;;;;;45.58;5.55;;;;;;;23.82;50.78;100591.25;5015339;28;20041;-89
2023/05/26 07:12:35;;;;;;;12.43;4.07;;;;;;;23.97;50.42;100603.94;5011908;28;20562;-87
2023/05/26 07:15:00;;;;;;;71.68;11.30;;;;;;;24.14;50.95;100616.22;5009768;28;20040;-80
2023/05/26 07:17:25;;;;;;;48.17;6.53;;;;;;;24.14;50.95;100611.56;5024994;28;20026;-83
2023/05/26 07:19:51;;;;;;;32.53;5.22;;;;;;;24.28;50.48;100604.13;5010686;28;20026;-81
2023/05/26 07:22:16;;;;;;;14.05;4.15;;;;;;;24.37;50.22;100613.88;5010859;28;20018;-83
2023/05/26 07:24:42;;;;;;;17.08;4.68;;;;;;;24.28;50.23;100573.88;5011633;28;20510;-83
2023/05/26 07:27:07;;;;;;;8.73;3.53;;;;;;;24.59;49.71;100604.25;5014716;28;20517;-80
2023/05/26 07:29:33;;;;;;;25.83;6.97;;;;;;;24.45;49.86;100580.63;5013667;28;20022;-89
2023/05/26 07:31:59;;;;;;;13.65;5.15;;;;;;;24.82;49.22;100610.16;5010931;28;20521;-81
2023/05/26 07:34:25;;;;;;;25.30;6.63;;;;;;;24.86;49.03;100605.88;5010489;28;20464;-85
2023/05/26 07:36:50;;;;;;;25.52;5.97;;;;;;;25.06;49.21;100603.06;5009851;28;20088;-79
2023/05/26 07:39:17;;;;;;;25.13;5.65;;;;;;;25.24;49.32;100613.31;5009368;28;20069;-79
2023/05/26 07:41:42;;;;;;;22.35;5.55;;;;;;;25.26;49.20;100608.44;5024451;28;20034;-83
2023/05/26 07:44:08;;;;;;;48.53;10.15;;;;;;;25.33;48.19;100612.00;5010709;28;20026;-85
2023/05/26 07:46:33;;;;;;;10.75;5.95;;;;;;;25.43;48.32;100598.59;5009395;28;20124;-85
2023/05/26 07:48:58;;;;;;;24.73;4.68;;;;;;;25.51;47.96;100603.00;5010879;28;20042;-90
2023/05/26 07:51:24;;;;;;;36.13;6.03;;;;;;;25.62;48.36;100589.38;5012735;28;20072;-89
2023/05/26 07:53:50;;;;;;;27.05;6.43;;;;;;;25.83;46.86;100605.53;5009524;28;20438;-79
2023/05/26 07:56:15;;;;;;;22.17;6.28;;;;;;;25.87;46.71;100598.47;5010047;28;20481;-80
2023/05/26 07:58:40;;;;;;;17.77;4.20;;;;;;;25.93;46.09;100603.09;5008928;28;20026;-80
2023/05/26 08:01:06;;;;;;;22.27;4.40;;;;;;;25.88;46.26;100591.91;5010966;28;20032;-86
2023/05/26 08:03:33;;;;;;;16.67;4.13;;;;;;;25.76;46.21;100588.19;5012518;28;20499;-84
2023/05/26 08:05:59;;;;;;;12.95;3.65;;;;;;;25.80;46.58;100574.81;5012524;28;20025;-84
2023/05/26 08:08:24;;;;;;;11.13;4.05;;;;;;;26.00;45.36;100614.06;5012230;28;20032;-84
2023/05/26 08:10:50;;;;;;;19.65;5.63;;;;;;;25.85;45.10;100566.72;5012831;28;20025;-83
2023/05/26 08:13:15;;;;;;;16.10;3.92;;;;;;;25.81;44.79;100574.59;5012472;28;20060;-85
2023/05/26 08:15:41;;;;;;;9.30;3.00;;;;;;;25.86;45.18;100585.78;5028893;28;20044;-83
2023/05/26 08:18:06;;;;;;;27.60;5.53;;;;;;;26.02;46.03;100603.69;5019690;28;20045;-84
2023/05/26 08:20:32;;;;;;;5.93;4.15;;;;;;;26.18;45.39;100599.50;5034815;28;20029;-84
2023/05/26 08:23:01;;;;;;;20.05;4.18;;;;;;;26.18;45.52;100602.25;5028527;28;20025;-88
2023/05/26 08:25:26;;;;;;;23.83;3.90;;;;;;;26.21;45.51;100585.25;5038661;28;20100;-88
2023/05/26 08:27:52;;;;;;;28.35;6.00;;;;;;;25.96;47.64;100577.84;5041091;28;20042;-85
2023/05/26 08:30:18;;;;;;;26.98;5.50;;;;;;;25.95;47.81;100583.59;5034711;28;20030;-83
2023/05/26 08:32:44;;;;;;;9.18;3.22;;;;;;;25.94;44.89;100571.72;5022466;28;20160;-83
2023/05/26 08:35:09;;;;;;;21.42;5.35;;;;;;;26.01;45.31;100570.81;5022725;28;20034;-83
2023/05/26 08:37:35;;;;;;;31.92;6.80;;;;;;;26.02;47.51;100584.38;5021612;28;20034;-84
2023/05/26 08:40:04;;;;;;;13.73;4.57;;;;;;;26.01;48.89;100607.50;5025026;28;20026;-83
2023/05/26 08:42:34;;;;;;;16.17;5.47;;;;;;;25.97;49.52;100609.84;5018325;28;20109;-83
2023/05/26 08:45:00;;;;;;;28.58;5.13;;;;;;;25.82;49.46;100578.19;5023867;28;20029;-82
2023/05/26 08:47:30;;;;;;;15.65;4.60;;;;;;;25.92;49.45;100626.22;5017279;28;20053;-84
2023/05/26 08:50:09;;;;;;;6.72;4.35;;;;;;;25.89;49.19;100607.38;5020786;28;20477;-84
2023/05/26 08:52:37;;;;;;;7.85;4.32;;;;;;;25.41;50.15;100575.94;5021276;28;20030;-85
2023/05/26 08:55:03;;;;;;;9.02;5.40;;;;;;;25.37;50.67;100597.59;5021858;28;20030;-85
2023/05/26 08:57:33;;;;;;;12.50;4.22;;;;;;;25.31;50.66;100592.97;5021463;28;20041;-85
2023/05/26 08:59:59;;;;;;;16.40;4.82;;;;;;;25.06;51.15;100580.19;5019292;28;20410;-85
2023/05/26 09:02:26;;;;;;;23.25;4.55;;;;;;;25.11;51.19;100585.84;5018459;28;20022;-85
2023/05/26 09:04:52;;;;;;;22.17;4.82;;;;;;;25.11;51.28;100559.19;5021675;28;20040;-85
2023/05/26 09:07:18;;;;;;;27.60;5.85;;;;;;;25.32;51.48;100593.78;5018475;28;20030;-84
2023/05/26 09:09:45;;;;;;;24.17;4.70;;;;;;;25.35;51.01;100599.69;5026435;28;20057;-81
2023/05/26 09:12:12;;;;;;;24.75;9.25;;;;;;;25.37;50.68;100597.59;5015860;28;20210;-84
2023/05/26 09:14:39;;;;;;;40.95;6.82;;;;;;;25.12;51.18;100573.78;5017811;28;20116;-84
2023/05/26 09:17:05;;;;;;;32.63;6.22;;;;;;;24.87;51.26;100563.56;5018327;28;20034;-84
2023/05/26 09:19:33;;;;;;;14.15;4.20;;;;;;;24.97;51.71;100587.00;5025610;28;20036;-85
2023/05/26 09:22:08;;;;;;;16.00;3.88;;;;;;;24.69;52.15;100570.81;5029499;28;20029;-89
2023/05/26 09:24:48;;;;;;;17.52;5.95;;;;;;;24.60;53.76;100594.97;5020291;28;20045;-85
2023/05/26 09:27:21;;;;;;;18.00;4.90;;;;;;;25.02;53.00;100604.53;5013661;28;20655;-83
2023/05/26 09:29:51;;;;;;;33.85;6.60;;;;;;;25.07;51.91;100588.25;5016299;28;20480;-82
2023/05/26 09:32:16;;;;;;;14.63;6.20;;;;;;;25.10;51.84;100600.72;5013475;28;20041;-82
2023/05/26 09:34:42;;;;;;;27.88;5.05;;;;;;;25.03;51.57;100610.91;5014412;28;20446;-86
2023/05/26 09:37:09;;;;;;;18.52;4.57;;;;;;;24.87;51.81;100618.59;5014440;28;20026;-85
2023/05/26 09:39:35;;;;;;;16.05;5.30;;;;;;;24.87;51.98;100602.09;5014211;28;20033;-88
2023/05/26 09:42:06;;;;;;;16.13;5.10;;;;;;;24.80;52.23;100611.38;5014248;28;20044;-92
2023/05/26 09:44:31;;;;;;;18.55;5.40;;;;;;;24.54;52.78;100611.47;5022605;28;20088;-86
2023/05/26 09:46:57;;;;;;;36.30;5.68;;;;;;;24.43;53.64;100598.41;5026472;28;20049;-84
2023/05/26 09:49:22;;;;;;;31.70;7.70;;;;;;;24.43;53.98;100582.75;5032482;28;20031;-82
2023/05/26 09:51:50;;;;;;;23.77;5.57;;;;;;;24.46;54.75;100592.47;5032670;28;20025;-87
2023/05/26 09:54:15;;;;;;;70.18;9.95;;;;;;;24.51;55.05;100587.16;5031024;28;20824;-78
2023/05/26 09:56:58;;;;;;;30.23;5.25;;;;;;;24.67;55.30;100576.53;5030506;28;20104;-78
2023/05/26 09:59:37;;;;;;;14.85;5.22;;;;;;;24.70;55.87;100578.00;5030633;28;20033;-76
2023/05/26 10:02:18;;;;;;;11.68;5.60;;;;;;;24.74;55.97;100571.84;5031252;28;20044;-77
2023/05/26 10:04:45;;;;;;;8.25;5.13;;;;;;;24.61;56.37;100562.81;5031116;28;20033;-78
2023/05/26 10:07:12;;;;;;;11.27;5.32;;;;;;;24.41;55.56;100573.88;5030649;28;20030;-77
2023/05/26 10:09:39;;;;;;;34.40;6.65;;;;;;;24.25;55.08;100568.81;5031446;28;20091;-78
2023/05/26 10:12:07;;;;;;;21.10;5.97;;;;;;;24.05;55.38;100557.00;5031387;28;20040;-79
2023/05/26 10:14:35;;;;;;;40.50;7.43;;;;;;;24.11;54.91;100559.78;5031135;28;20033;-79
2023/05/26 10:17:03;;;;;;;15.45;5.32;;;;;;;24.02;55.12;100547.28;5030979;28;20033;-78
2023/05/26 10:19:29;;;;;;;19.15;5.15;;;;;;;24.13;55.28;100562.28;5031515;28;20045;-79
2023/05/26 10:22:01;;;;;;;20.42;5.40;;;;;;;24.18;55.57;100554.28;5029873;28;20022;-76
2023/05/26 10:24:38;;;;;;;10.27;4.47;;;;;;;24.14;55.68;100570.34;5030632;28;20477;-87
2023/05/26 10:27:09;;;;;;;18.60;5.30;;;;;;;24.04;56.40;100560.81;5030778;28;20067;-78
2023/05/26 10:29:45;;;;;;;23.45;5.15;;;;;;;23.91;56.91;100555.34;5029975;28;20116;-78
2023/05/26 10:32:47;;;;;;;14.38;5.20;;;;;;;24.01;57.60;100561.22;5029628;28;20112;-79
2023/05/26 10:35:23;;;;;;;13.10;5.60;;;;;;;23.87;58.52;100576.91;5030293;28;20061;-80
2023/05/26 10:38:00;;;;;;;35.85;5.05;;;;;;;24.01;59.04;100561.22;5033045;28;20056;-78
2023/05/26 10:40:30;;;;;;;15.82;4.95;;;;;;;23.97;58.93;100574.56;5045260;28;20029;-78
2023/05/26 10:43:20;;;;;;;44.80;8.55;;;;;;;24.10;59.17;100570.94;5029827;28;20087;-79
2023/05/26 10:46:02;;;;;;;14.23;4.57;;;;;;;24.30;58.84;100578.13;5025340;28;20124;-79
2023/05/26 10:48:36;;;;;;;6.63;4.63;;;;;;;24.19;58.94;100565.03;5010936;28;20037;-82
2023/05/26 10:51:09;;;;;;;14.18;5.35;;;;;;;24.02;60.14;100571.16;5012043;28;20034;-89
2023/05/26 10:53:46;;;;;;;18.88;6.05;;;;;;;24.05;60.33;100565.25;5011419;28;20022;-85
2023/05/26 10:56:14;;;;;;;24.67;6.25;;;;;;;23.80;60.66;100537.59;5012583;28;20478;-85
2023/05/26 10:58:45;;;;;;;32.85;6.93;;;;;;;23.92;61.15;100548.78;5017141;28;20029;-85
2023/05/26 11:01:12;;;;;;;13.60;5.30;;;;;;;23.95;60.93;100565.69;5027306;28;20513;-87
2023/05/26 11:03:46;;;;;;;8.02;4.95;;;;;;;23.63;62.17;100563.81;5011895;28;20022;-85
2023/05/26 11:06:14;;;;;;;9.80;4.45;;;;;;;23.85;62.02;100563.34;5014642;28;20045;-85
2023/05/26 11:08:46;;;;;;;34.70;5.88;;;;;;;24.13;61.27;100548.56;5016523;28;20052;-89
2023/05/26 11:11:13;;;;;;;14.40;5.03;;;;;;;24.30;60.48;100556.16;5027846;28;20040;-87
2023/05/26 11:14:12;;;;;;;20.05;4.55;;;;;;;24.26;60.71;100565.03;5032411;28;20060;-82
2023/05/26 11:16:42;;;;;;;19.08;5.75;;;;;;;24.29;61.16;100559.09;4975338;28;20054;-89
2023/05/26 11:19:09;;;;;;;18.77;5.90;;;;;;;24.51;60.36;100546.75;4971742;28;20190;-88
2023/05/26 11:21:36;;;;;;;17.80;5.07;;;;;;;24.35;60.28;100541.72;4951364;29;20149;-87